sensor_id;sensor_type;location;lat;lon;timestamp;pressure;altitude;pressure_sealevel;temperature
76901;BMP280;65859;43.020;25.096;2023-09-18T00:00:54;99803.88;;;18.55
76901;BMP280;65859;43.020;25.096;2023-09-18T00:03:23;99800.94;;;18.34
76901;BMP280;65859;43.020;25.096;2023-09-18T00:05:51;99800.03;;;18.26
76901;BMP280;65859;43.020;25.096;2023-09-18T00:08:18;99797.34;;;18.26
76901;BMP280;65859;43.020;25.096;2023-09-18T00:10:53;99799.13;;;18.71
76901;BMP280;65859;43.020;25.096;2023-09-18T00:13:20;99804.78;;;18.96
76901;BMP280;65859;43.020;25.096;2023-09-18T00:15:47;99794.78;;;18.97
76901;BMP280;65859;43.020;25.096;2023-09-18T00:18:14;99799.72;;;18.91
76901;BMP280;65859;43.020;25.096;2023-09-18T00:20:42;99794.69;;;18.56
76901;BMP280;65859;43.020;25.096;2023-09-18T00:23:09;99794.66;;;18.52
76901;BMP280;65859;43.020;25.096;2023-09-18T00:25:36;99797.19;;;18.42
76901;BMP280;65859;43.020;25.096;2023-09-18T00:28:56;99796.59;;;18.55
76901;BMP280;65859;43.020;25.096;2023-09-18T00:31:41;99795.47;;;18.56
76901;BMP280;65859;43.020;25.096;2023-09-18T00:34:34;99794.97;;;18.77
76901;BMP280;65859;43.020;25.096;2023-09-18T00:37:28;99798.84;;;18.83
76901;BMP280;65859;43.020;25.096;2023-09-18T00:40:13;99796.97;;;18.87
76901;BMP280;65859;43.020;25.096;2023-09-18T00:42:39;99791.31;;;18.96
76901;BMP280;65859;43.020;25.096;2023-09-18T00:45:06;99787.34;;;18.53
76901;BMP280;65859;43.020;25.096;2023-09-18T00:47:32;99785.03;;;18.25
76901;BMP280;65859;43.020;25.096;2023-09-18T00:49:59;99786.44;;;18.15
76901;BMP280;65859;43.020;25.096;2023-09-18T00:52:27;99784.03;;;18.10
76901;BMP280;65859;43.020;25.096;2023-09-18T00:54:53;99780.09;;;17.78
76901;BMP280;65859;43.020;25.096;2023-09-18T00:57:21;99786.09;;;17.25
76901;BMP280;65859;43.020;25.096;2023-09-18T00:59:48;99784.75;;;17.16
76901;BMP280;65859;43.020;25.096;2023-09-18T01:02:17;99783.31;;;17.22
76901;BMP280;65859;43.020;25.096;2023-09-18T01:04:48;99790.00;;;17.51
76901;BMP280;65859;43.020;25.096;2023-09-18T01:07:15;99784.44;;;17.40
76901;BMP280;65859;43.020;25.096;2023-09-18T01:09:42;99785.34;;;17.71
76901;BMP280;65859;43.020;25.096;2023-09-18T01:12:33;99791.84;;;17.92
76901;BMP280;65859;43.020;25.096;2023-09-18T01:15:07;99787.13;;;17.63
76901;BMP280;65859;43.020;25.096;2023-09-18T01:17:37;99789.88;;;17.66
76901;BMP280;65859;43.020;25.096;2023-09-18T01:20:10;99789.13;;;18.15
76901;BMP280;65859;43.020;25.096;2023-09-18T01:22:38;99781.84;;;16.86
76901;BMP280;65859;43.020;25.096;2023-09-18T01:25:04;99787.22;;;16.86
76901;BMP280;65859;43.020;25.096;2023-09-18T01:27:32;99792.97;;;16.65
76901;BMP280;65859;43.020;25.096;2023-09-18T01:29:58;99790.84;;;16.74
76901;BMP280;65859;43.020;25.096;2023-09-18T01:32:27;99785.13;;;16.95
76901;BMP280;65859;43.020;25.096;2023-09-18T01:34:57;99781.03;;;17.20
76901;BMP280;65859;43.020;25.096;2023-09-18T01:37:30;99785.13;;;17.37
76901;BMP280;65859;43.020;25.096;2023-09-18T01:39:57;99782.75;;;17.32
76901;BMP280;65859;43.020;25.096;2023-09-18T01:42:26;99783.22;;;16.95
76901;BMP280;65859;43.020;25.096;2023-09-18T01:44:53;99794.34;;;16.59
76901;BMP280;65859;43.020;25.096;2023-09-18T01:47:21;99787.38;;;16.54
76901;BMP280;65859;43.020;25.096;2023-09-18T01:49:49;99792.66;;;16.89
76901;BMP280;65859;43.020;25.096;2023-09-18T01:52:16;99788.78;;;17.25
76901;BMP280;65859;43.020;25.096;2023-09-18T01:54:43;99789.44;;;16.80
76901;BMP280;65859;43.020;25.096;2023-09-18T01:57:09;99794.97;;;17.29
76901;BMP280;65859;43.020;25.096;2023-09-18T01:59:36;99797.03;;;17.59
76901;BMP280;65859;43.020;25.096;2023-09-18T02:02:02;99793.97;;;16.95
76901;BMP280;65859;43.020;25.096;2023-09-18T02:04:31;99798.53;;;16.60
76901;BMP280;65859;43.020;25.096;2023-09-18T02:06:58;99799.84;;;16.66
76901;BMP280;65859;43.020;25.096;2023-09-18T02:09:25;99797.59;;;17.06
76901;BMP280;65859;43.020;25.096;2023-09-18T02:11:51;99799.28;;;16.76
76901;BMP280;65859;43.020;25.096;2023-09-18T02:14:17;99799.16;;;16.88
76901;BMP280;65859;43.020;25.096;2023-09-18T02:16:44;99794.00;;;16.44
76901;BMP280;65859;43.020;25.096;2023-09-18T02:19:12;99797.84;;;16.98
76901;BMP280;65859;43.020;25.096;2023-09-18T02:21:40;99792.75;;;17.31
76901;BMP280;65859;43.020;25.096;2023-09-18T02:24:07;99801.56;;;16.93
76901;BMP280;65859;43.020;25.096;2023-09-18T02:26:34;99798.09;;;16.73
76901;BMP280;65859;43.020;25.096;2023-09-18T02:29:08;99802.09;;;16.64
76901;BMP280;65859;43.020;25.096;2023-09-18T02:31:39;99797.56;;;16.48
76901;BMP280;65859;43.020;25.096;2023-09-18T02:34:06;99800.56;;;16.82
76901;BMP280;65859;43.020;25.096;2023-09-18T02:36:33;99801.84;;;16.88
76901;BMP280;65859;43.020;25.096;2023-09-18T02:38:59;99799.06;;;17.23
76901;BMP280;65859;43.020;25.096;2023-09-18T02:41:26;99803.03;;;17.52
76901;BMP280;65859;43.020;25.096;2023-09-18T02:43:52;99804.66;;;17.15
76901;BMP280;65859;43.020;25.096;2023-09-18T02:46:18;99806.28;;;16.81
76901;BMP280;65859;43.020;25.096;2023-09-18T02:48:44;99811.78;;;16.88
76901;BMP280;65859;43.020;25.096;2023-09-18T02:51:11;99807.69;;;16.74
76901;BMP280;65859;43.020;25.096;2023-09-18T02:53:37;99807.97;;;16.89
76901;BMP280;65859;43.020;25.096;2023-09-18T02:56:03;99809.16;;;16.72
76901;BMP280;65859;43.020;25.096;2023-09-18T02:58:31;99814.41;;;16.33
76901;BMP280;65859;43.020;25.096;2023-09-18T03:00:57;99811.19;;;16.94
76901;BMP280;65859;43.020;25.096;2023-09-18T03:03:25;99816.44;;;16.91
76901;BMP280;65859;43.020;25.096;2023-09-18T03:05:52;99816.69;;;16.66
76901;BMP280;65859;43.020;25.096;2023-09-18T03:08:18;99816.31;;;16.84
76901;BMP280;65859;43.020;25.096;2023-09-18T03:10:44;99822.84;;;16.32
76901;BMP280;65859;43.020;25.096;2023-09-18T03:13:15;99803.56;;;16.26
76901;BMP280;65859;43.020;25.096;2023-09-18T03:15:45;99818.09;;;16.60
76901;BMP280;65859;43.020;25.096;2023-09-18T03:18:15;99826.97;;;16.80
76901;BMP280;65859;43.020;25.096;2023-09-18T03:20:41;99822.16;;;16.89
76901;BMP280;65859;43.020;25.096;2023-09-18T03:23:07;99826.59;;;17.01
76901;BMP280;65859;43.020;25.096;2023-09-18T03:25:35;99820.38;;;16.58
76901;BMP280;65859;43.020;25.096;2023-09-18T03:28:01;99819.88;;;16.72
76901;BMP280;65859;43.020;25.096;2023-09-18T03:30:29;99825.66;;;16.07
76901;BMP280;65859;43.020;25.096;2023-09-18T03:32:56;99821.50;;;16.41
76901;BMP280;65859;43.020;25.096;2023-09-18T03:35:22;99825.16;;;16.17
76901;BMP280;65859;43.020;25.096;2023-09-18T03:37:50;99818.94;;;16.29
76901;BMP280;65859;43.020;25.096;2023-09-18T03:40:17;99826.69;;;16.34
76901;BMP280;65859;43.020;25.096;2023-09-18T03:42:44;99826.16;;;16.13
76901;BMP280;65859;43.020;25.096;2023-09-18T03:45:11;99820.38;;;16.42
76901;BMP280;65859;43.020;25.096;2023-09-18T03:47:39;99819.88;;;16.72
76901;BMP280;65859;43.020;25.096;2023-09-18T03:50:09;99821.81;;;16.91
76901;BMP280;65859;43.020;25.096;2023-09-18T03:52:36;99817.09;;;16.84
76901;BMP280;65859;43.020;25.096;2023-09-18T03:55:02;99826.41;;;17.10
76901;BMP280;65859;43.020;25.096;2023-09-18T03:57:29;99826.81;;;17.12
76901;BMP280;65859;43.020;25.096;2023-09-18T03:59:55;99833.53;;;17.02
76901;BMP280;65859;43.020;25.096;2023-09-18T04:02:25;99833.72;;;16.93
76901;BMP280;65859;43.020;25.096;2023-09-18T04:04:55;99835.28;;;16.75
76901;BMP280;65859;43.020;25.096;2023-09-18T04:07:21;99841.28;;;17.26
76901;BMP280;65859;43.020;25.096;2023-09-18T04:09:47;99847.00;;;16.51
76901;BMP280;65859;43.020;25.096;2023-09-18T04:12:13;99846.31;;;16.38
76901;BMP280;65859;43.020;25.096;2023-09-18T04:14:40;99844.50;;;16.27
76901;BMP280;65859;43.020;25.096;2023-09-18T04:17:08;99850.47;;;16.20
76901;BMP280;65859;43.020;25.096;2023-09-18T04:19:34;99850.28;;;16.29
76901;BMP280;65859;43.020;25.096;2023-09-18T04:22:01;99850.19;;;16.41
76901;BMP280;65859;43.020;25.096;2023-09-18T04:24:27;99852.59;;;16.46
76901;BMP280;65859;43.020;25.096;2023-09-18T04:26:54;99853.06;;;16.32
76901;BMP280;65859;43.020;25.096;2023-09-18T04:29:20;99841.81;;;16.77
76901;BMP280;65859;43.020;25.096;2023-09-18T04:31:46;99845.47;;;17.04
76901;BMP280;65859;43.020;25.096;2023-09-18T04:34:15;99844.16;;;16.79
76901;BMP280;65859;43.020;25.096;2023-09-18T04:36:41;99845.16;;;16.90
76901;BMP280;65859;43.020;25.096;2023-09-18T04:39:09;99847.06;;;16.90
76901;BMP280;65859;43.020;25.096;2023-09-18T04:41:36;99843.50;;;16.66
76901;BMP280;65859;43.020;25.096;2023-09-18T04:44:02;99852.00;;;17.26
76901;BMP280;65859;43.020;25.096;2023-09-18T04:46:28;99856.50;;;17.38
76901;BMP280;65859;43.020;25.096;2023-09-18T04:48:55;99851.84;;;17.35
76901;BMP280;65859;43.020;25.096;2023-09-18T04:51:22;99851.47;;;17.17
76901;BMP280;65859;43.020;25.096;2023-09-18T04:53:48;99850.84;;;17.24
76901;BMP280;65859;43.020;25.096;2023-09-18T04:56:14;99855.28;;;17.16
76901;BMP280;65859;43.020;25.096;2023-09-18T04:58:40;99855.63;;;17.15
76901;BMP280;65859;43.020;25.096;2023-09-18T05:01:07;99859.31;;;17.26
76901;BMP280;65859;43.020;25.096;2023-09-18T05:03:37;99860.66;;;17.35
76901;BMP280;65859;43.020;25.096;2023-09-18T05:06:04;99857.22;;;17.58
76901;BMP280;65859;43.020;25.096;2023-09-18T05:08:30;99867.66;;;17.63
76901;BMP280;65859;43.020;25.096;2023-09-18T05:10:57;99870.44;;;17.47
76901;BMP280;65859;43.020;25.096;2023-09-18T05:13:24;99865.47;;;17.68
76901;BMP280;65859;43.020;25.096;2023-09-18T05:15:50;99866.13;;;17.62
76901;BMP280;65859;43.020;25.096;2023-09-18T05:18:16;99869.00;;;17.73
76901;BMP280;65859;43.020;25.096;2023-09-18T05:20:43;99872.31;;;18.35
76901;BMP280;65859;43.020;25.096;2023-09-18T05:23:09;99873.13;;;18.12
76901;BMP280;65859;43.020;25.096;2023-09-18T05:25:35;99867.53;;;17.98
76901;BMP280;65859;43.020;25.096;2023-09-18T05:28:04;99870.13;;;18.44
76901;BMP280;65859;43.020;25.096;2023-09-18T05:30:33;99872.59;;;18.29
76901;BMP280;65859;43.020;25.096;2023-09-18T05:33:05;99876.25;;;18.14
76901;BMP280;65859;43.020;25.096;2023-09-18T05:35:41;99876.00;;;18.00
76901;BMP280;65859;43.020;25.096;2023-09-18T05:38:10;99877.56;;;18.50
76901;BMP280;65859;43.020;25.096;2023-09-18T05:40:37;99872.72;;;18.37
76901;BMP280;65859;43.020;25.096;2023-09-18T05:43:03;99883.91;;;18.39
76901;BMP280;65859;43.020;25.096;2023-09-18T05:45:30;99874.78;;;18.20
76901;BMP280;65859;43.020;25.096;2023-09-18T05:47:57;99875.69;;;18.28
76901;BMP280;65859;43.020;25.096;2023-09-18T05:50:31;99875.72;;;18.58
76901;BMP280;65859;43.020;25.096;2023-09-18T05:52:58;99877.19;;;18.78
76901;BMP280;65859;43.020;25.096;2023-09-18T05:55:26;99877.97;;;18.79
76901;BMP280;65859;43.020;25.096;2023-09-18T05:57:54;99881.41;;;19.09
76901;BMP280;65859;43.020;25.096;2023-09-18T06:00:22;99879.91;;;19.12
76901;BMP280;65859;43.020;25.096;2023-09-18T06:02:48;99872.88;;;19.04
76901;BMP280;65859;43.020;25.096;2023-09-18T06:05:17;99885.03;;;19.24
76901;BMP280;65859;43.020;25.096;2023-09-18T06:07:44;99884.31;;;19.27
76901;BMP280;65859;43.020;25.096;2023-09-18T06:10:12;99884.25;;;19.24
76901;BMP280;65859;43.020;25.096;2023-09-18T06:12:41;99892.97;;;19.13
76901;BMP280;65859;43.020;25.096;2023-09-18T06:15:10;99892.16;;;19.09
76901;BMP280;65859;43.020;25.096;2023-09-18T06:17:42;99893.84;;;19.55
76901;BMP280;65859;43.020;25.096;2023-09-18T06:20:10;99896.69;;;19.35
76901;BMP280;65859;43.020;25.096;2023-09-18T06:22:38;99899.59;;;19.53
76901;BMP280;65859;43.020;25.096;2023-09-18T06:25:06;99903.47;;;19.56
76901;BMP280;65859;43.020;25.096;2023-09-18T06:27:37;99903.47;;;19.56
76901;BMP280;65859;43.020;25.096;2023-09-18T06:30:04;99896.16;;;19.56
76901;BMP280;65859;43.020;25.096;2023-09-18T06:32:31;99893.97;;;19.32
76901;BMP280;65859;43.020;25.096;2023-09-18T06:34:57;99902.28;;;19.53
76901;BMP280;65859;43.020;25.096;2023-09-18T06:37:24;99907.31;;;19.95
76901;BMP280;65859;43.020;25.096;2023-09-18T06:39:51;99906.63;;;19.65
76901;BMP280;65859;43.020;25.096;2023-09-18T06:42:19;99905.81;;;19.61
76901;BMP280;65859;43.020;25.096;2023-09-18T06:44:45;99900.41;;;19.24
76901;BMP280;65859;43.020;25.096;2023-09-18T06:47:12;99910.47;;;20.04
76901;BMP280;65859;43.020;25.096;2023-09-18T06:49:38;99917.06;;;20.10
76901;BMP280;65859;43.020;25.096;2023-09-18T06:52:04;99913.44;;;19.92
76901;BMP280;65859;43.020;25.096;2023-09-18T06:54:32;99914.66;;;19.98
76901;BMP280;65859;43.020;25.096;2023-09-18T06:56:58;99915.06;;;20.55
76901;BMP280;65859;43.020;25.096;2023-09-18T06:59:24;99920.03;;;20.02
76901;BMP280;65859;43.020;25.096;2023-09-18T07:01:51;99915.03;;;20.48
76901;BMP280;65859;43.020;25.096;2023-09-18T07:04:17;99926.59;;;20.52
76901;BMP280;65859;43.020;25.096;2023-09-18T07:06:43;99915.25;;;20.91
76901;BMP280;65859;43.020;25.096;2023-09-18T07:09:09;99916.22;;;21.52
76901;BMP280;65859;43.020;25.096;2023-09-18T07:11:38;99917.31;;;21.36
76901;BMP280;65859;43.020;25.096;2023-09-18T07:14:05;99914.72;;;21.83
76901;BMP280;65859;43.020;25.096;2023-09-18T07:16:32;99921.22;;;21.46
76901;BMP280;65859;43.020;25.096;2023-09-18T07:19:00;99913.13;;;22.21
76901;BMP280;65859;43.020;25.096;2023-09-18T07:21:27;99933.19;;;22.48
76901;BMP280;65859;43.020;25.096;2023-09-18T07:23:55;99927.16;;;23.73
76901;BMP280;65859;43.020;25.096;2023-09-18T07:26:21;99928.44;;;22.88
76901;BMP280;65859;43.020;25.096;2023-09-18T07:28:47;99934.97;;;24.80
76901;BMP280;65859;43.020;25.096;2023-09-18T07:31:14;99922.34;;;24.97
76901;BMP280;65859;43.020;25.096;2023-09-18T07:33:41;99928.81;;;24.76
76901;BMP280;65859;43.020;25.096;2023-09-18T07:36:08;99927.44;;;24.91
76901;BMP280;65859;43.020;25.096;2023-09-18T07:38:36;99932.88;;;25.18
76901;BMP280;65859;43.020;25.096;2023-09-18T07:41:03;99934.13;;;25.13
76901;BMP280;65859;43.020;25.096;2023-09-18T07:43:30;99927.84;;;24.21
76901;BMP280;65859;43.020;25.096;2023-09-18T07:45:57;99922.22;;;25.81
76901;BMP280;65859;43.020;25.096;2023-09-18T07:48:25;99929.09;;;25.39
76901;BMP280;65859;43.020;25.096;2023-09-18T07:50:52;99924.63;;;26.18
76901;BMP280;65859;43.020;25.096;2023-09-18T07:53:18;99924.50;;;25.82
76901;BMP280;65859;43.020;25.096;2023-09-18T07:55:44;99931.78;;;26.09
76901;BMP280;65859;43.020;25.096;2023-09-18T07:58:10;99919.16;;;26.58
76901;BMP280;65859;43.020;25.096;2023-09-18T08:00:37;99921.75;;;26.26
76901;BMP280;65859;43.020;25.096;2023-09-18T08:03:04;99916.53;;;29.40
76901;BMP280;65859;43.020;25.096;2023-09-18T08:05:30;99910.97;;;32.32
76901;BMP280;65859;43.020;25.096;2023-09-18T08:07:58;99922.97;;;30.73
76901;BMP280;65859;43.020;25.096;2023-09-18T08:10:25;99926.53;;;31.83
76901;BMP280;65859;43.020;25.096;2023-09-18T08:12:52;99930.94;;;31.99
76901;BMP280;65859;43.020;25.096;2023-09-18T08:15:20;99934.69;;;32.86
76901;BMP280;65859;43.020;25.096;2023-09-18T08:17:47;99932.16;;;33.21
76901;BMP280;65859;43.020;25.096;2023-09-18T08:20:15;99926.50;;;33.39
76901;BMP280;65859;43.020;25.096;2023-09-18T08:22:42;99933.63;;;31.48
76901;BMP280;65859;43.020;25.096;2023-09-18T08:25:10;99936.56;;;34.01
76901;BMP280;65859;43.020;25.096;2023-09-18T08:27:40;99936.84;;;33.88
76901;BMP280;65859;43.020;25.096;2023-09-18T08:30:11;99921.47;;;32.51
76901;BMP280;65859;43.020;25.096;2023-09-18T08:32:39;99933.47;;;30.35
76901;BMP280;65859;43.020;25.096;2023-09-18T08:35:06;99928.28;;;31.63
76901;BMP280;65859;43.020;25.096;2023-09-18T08:37:32;99928.03;;;32.45
76901;BMP280;65859;43.020;25.096;2023-09-18T08:39:58;99921.09;;;32.82
76901;BMP280;65859;43.020;25.096;2023-09-18T08:42:30;99918.78;;;34.17
76901;BMP280;65859;43.020;25.096;2023-09-18T08:44:59;99912.09;;;36.24
76901;BMP280;65859;43.020;25.096;2023-09-18T08:47:28;99911.44;;;37.44
76901;BMP280;65859;43.020;25.096;2023-09-18T08:49:56;99916.41;;;35.31
76901;BMP280;65859;43.020;25.096;2023-09-18T08:52:24;99911.28;;;33.88
76901;BMP280;65859;43.020;25.096;2023-09-18T08:54:52;99906.06;;;34.39
76901;BMP280;65859;43.020;25.096;2023-09-18T08:57:20;99909.75;;;34.71
76901;BMP280;65859;43.020;25.096;2023-09-18T08:59:48;99915.84;;;35.21
76901;BMP280;65859;43.020;25.096;2023-09-18T09:02:16;99901.63;;;37.43
76901;BMP280;65859;43.020;25.096;2023-09-18T09:04:43;99902.09;;;37.75
76901;BMP280;65859;43.020;25.096;2023-09-18T09:07:09;99905.91;;;37.22
76901;BMP280;65859;43.020;25.096;2023-09-18T09:09:36;99899.31;;;37.75
76901;BMP280;65859;43.020;25.096;2023-09-18T09:12:02;99904.09;;;36.97
76901;BMP280;65859;43.020;25.096;2023-09-18T09:14:28;99900.50;;;36.68
76901;BMP280;65859;43.020;25.096;2023-09-18T09:16:56;99894.88;;;36.46
76901;BMP280;65859;43.020;25.096;2023-09-18T09:19:33;99902.31;;;37.83
76901;BMP280;65859;43.020;25.096;2023-09-18T09:22:04;99895.56;;;38.88
76901;BMP280;65859;43.020;25.096;2023-09-18T09:24:37;99899.69;;;36.62
76901;BMP280;65859;43.020;25.096;2023-09-18T09:27:04;99900.22;;;36.66
76901;BMP280;65859;43.020;25.096;2023-09-18T09:29:30;99897.63;;;33.49
76901;BMP280;65859;43.020;25.096;2023-09-18T09:32:16;99907.63;;;33.08
76901;BMP280;65859;43.020;25.096;2023-09-18T09:34:43;99907.66;;;32.84
76901;BMP280;65859;43.020;25.096;2023-09-18T09:37:10;99899.09;;;37.51
76901;BMP280;65859;43.020;25.096;2023-09-18T09:39:52;99907.66;;;37.19
76901;BMP280;65859;43.020;25.096;2023-09-18T09:42:20;99900.97;;;36.61
76901;BMP280;65859;43.020;25.096;2023-09-18T09:45:11;99890.25;;;36.97
76901;BMP280;65859;43.020;25.096;2023-09-18T09:47:43;99895.94;;;38.21
76901;BMP280;65859;43.020;25.096;2023-09-18T09:50:14;99887.25;;;36.30
76901;BMP280;65859;43.020;25.096;2023-09-18T09:52:48;99890.88;;;35.10
76901;BMP280;65859;43.020;25.096;2023-09-18T09:55:26;99893.31;;;38.45
76901;BMP280;65859;43.020;25.096;2023-09-18T09:58:02;99891.16;;;38.63
76901;BMP280;65859;43.020;25.096;2023-09-18T10:00:39;99886.22;;;36.98
76901;BMP280;65859;43.020;25.096;2023-09-18T10:03:10;99895.41;;;36.07
76901;BMP280;65859;43.020;25.096;2023-09-18T10:05:39;99896.44;;;36.69
76901;BMP280;65859;43.020;25.096;2023-09-18T10:08:06;99893.03;;;37.30
76901;BMP280;65859;43.020;25.096;2023-09-18T10:10:36;99900.38;;;38.41
76901;BMP280;65859;43.020;25.096;2023-09-18T10:13:10;99893.94;;;38.05
76901;BMP280;65859;43.020;25.096;2023-09-18T10:15:39;99892.31;;;39.19
76901;BMP280;65859;43.020;25.096;2023-09-18T10:18:28;99897.31;;;38.44
76901;BMP280;65859;43.020;25.096;2023-09-18T10:27:03;99894.25;;;39.24
76901;BMP280;65859;43.020;25.096;2023-09-18T10:29:33;99903.25;;;34.74
76901;BMP280;65859;43.020;25.096;2023-09-18T10:32:03;99899.59;;;37.38
76901;BMP280;65859;43.020;25.096;2023-09-18T10:34:31;99896.00;;;40.00
76901;BMP280;65859;43.020;25.096;2023-09-18T10:37:01;99894.22;;;40.22
76901;BMP280;65859;43.020;25.096;2023-09-18T10:39:29;99887.19;;;40.21
76901;BMP280;65859;43.020;25.096;2023-09-18T10:41:57;99888.41;;;41.86
76901;BMP280;65859;43.020;25.096;2023-09-18T10:44:28;99883.94;;;35.78
76901;BMP280;65859;43.020;25.096;2023-09-18T10:46:56;99886.72;;;37.02
76901;BMP280;65859;43.020;25.096;2023-09-18T10:49:22;99890.19;;;38.96
76901;BMP280;65859;43.020;25.096;2023-09-18T10:51:49;99889.41;;;39.60
76901;BMP280;65859;43.020;25.096;2023-09-18T10:54:24;99886.03;;;35.57
76901;BMP280;65859;43.020;25.096;2023-09-18T10:56:52;99887.75;;;34.57
76901;BMP280;65859;43.020;25.096;2023-09-18T10:59:19;99888.91;;;33.51
76901;BMP280;65859;43.020;25.096;2023-09-18T11:01:47;99881.47;;;37.26
76901;BMP280;65859;43.020;25.096;2023-09-18T11:04:17;99887.44;;;35.78
76901;BMP280;65859;43.020;25.096;2023-09-18T11:09:26;99875.19;;;37.48
76901;BMP280;65859;43.020;25.096;2023-09-18T11:11:54;99867.44;;;36.48
76901;BMP280;65859;43.020;25.096;2023-09-18T11:17:34;99848.22;;;35.37
76901;BMP280;65859;43.020;25.096;2023-09-18T11:20:17;99837.63;;;37.24
76901;BMP280;65859;43.020;25.096;2023-09-18T11:23:10;99823.00;;;37.46
76901;BMP280;65859;43.020;25.096;2023-09-18T11:25:43;99808.25;;;35.69
76901;BMP280;65859;43.020;25.096;2023-09-18T11:28:16;99783.38;;;35.69
76901;BMP280;65859;43.020;25.096;2023-09-18T11:30:54;99785.50;;;37.34
76901;BMP280;65859;43.020;25.096;2023-09-18T11:38:58;99767.94;;;32.26
76901;BMP280;65859;43.020;25.096;2023-09-18T11:41:33;99769.47;;;31.61
76901;BMP280;65859;43.020;25.096;2023-09-18T11:46:45;99746.06;;;31.42
76901;BMP280;65859;43.020;25.096;2023-09-18T11:49:12;99730.38;;;29.75
76901;BMP280;65859;43.020;25.096;2023-09-18T11:51:39;99750.28;;;29.22
76901;BMP280;65859;43.020;25.096;2023-09-18T11:54:07;99734.41;;;28.74
76901;BMP280;65859;43.020;25.096;2023-09-18T11:56:34;99731.75;;;28.36
76901;BMP280;65859;43.020;25.096;2023-09-18T11:59:01;99724.72;;;29.38
76901;BMP280;65859;43.020;25.096;2023-09-18T12:01:31;99730.41;;;28.53
76901;BMP280;65859;43.020;25.096;2023-09-18T12:04:02;99726.19;;;28.74
76901;BMP280;65859;43.020;25.096;2023-09-18T12:06:35;99722.09;;;28.56
76901;BMP280;65859;43.020;25.096;2023-09-18T12:09:03;99720.59;;;27.92
76901;BMP280;65859;43.020;25.096;2023-09-18T12:11:30;99720.16;;;28.44
76901;BMP280;65859;43.020;25.096;2023-09-18T12:13:56;99714.72;;;27.68
76901;BMP280;65859;43.020;25.096;2023-09-18T12:16:24;99707.16;;;26.73
76901;BMP280;65859;43.020;25.096;2023-09-18T12:18:50;99710.22;;;27.62
76901;BMP280;65859;43.020;25.096;2023-09-18T12:21:17;99712.91;;;27.49
76901;BMP280;65859;43.020;25.096;2023-09-18T12:23:45;99699.69;;;27.06
76901;BMP280;65859;43.020;25.096;2023-09-18T12:26:15;99709.50;;;27.45
76901;BMP280;65859;43.020;25.096;2023-09-18T12:28:45;99713.03;;;27.58
76901;BMP280;65859;43.020;25.096;2023-09-18T12:31:15;99697.28;;;26.79
76901;BMP280;65859;43.020;25.096;2023-09-18T12:33:42;99699.69;;;27.06
76901;BMP280;65859;43.020;25.096;2023-09-18T12:36:18;99694.66;;;27.04
76901;BMP280;65859;43.020;25.096;2023-09-18T12:38:56;99697.63;;;26.65
76901;BMP280;65859;43.020;25.096;2023-09-18T12:41:25;99693.03;;;27.36
76901;BMP280;65859;43.020;25.096;2023-09-18T12:43:51;99697.78;;;26.74
76901;BMP280;65859;43.020;25.096;2023-09-18T12:46:18;99693.91;;;27.33
76901;BMP280;65859;43.020;25.096;2023-09-18T12:48:45;99687.13;;;27.24
76901;BMP280;65859;43.020;25.096;2023-09-18T12:51:12;99684.91;;;26.90
76901;BMP280;65859;43.020;25.096;2023-09-18T12:53:40;99679.88;;;27.05
76901;BMP280;65859;43.020;25.096;2023-09-18T12:56:10;99672.78;;;26.63
76901;BMP280;65859;43.020;25.096;2023-09-18T12:58:39;99675.44;;;26.66
76901;BMP280;65859;43.020;25.096;2023-09-18T13:01:08;99674.34;;;27.09
76901;BMP280;65859;43.020;25.096;2023-09-18T13:03:45;99666.44;;;26.98
76901;BMP280;65859;43.020;25.096;2023-09-18T13:06:19;99670.59;;;27.15
76901;BMP280;65859;43.020;25.096;2023-09-18T13:08:45;99668.13;;;26.92
76901;BMP280;65859;43.020;25.096;2023-09-18T13:11:12;99653.94;;;26.84
76901;BMP280;65859;43.020;25.096;2023-09-18T13:13:40;99664.16;;;27.09
76901;BMP280;65859;43.020;25.096;2023-09-18T13:16:10;99662.41;;;26.86
76901;BMP280;65859;43.020;25.096;2023-09-18T13:18:37;99660.69;;;26.47
76901;BMP280;65859;43.020;25.096;2023-09-18T13:21:12;99655.56;;;26.82
76901;BMP280;65859;43.020;25.096;2023-09-18T13:23:40;99650.28;;;26.75
76901;BMP280;65859;43.020;25.096;2023-09-18T13:26:07;99652.78;;;26.69
76901;BMP280;65859;43.020;25.096;2023-09-18T13:28:34;99652.09;;;26.65
76901;BMP280;65859;43.020;25.096;2023-09-18T13:31:02;99642.34;;;26.80
76901;BMP280;65859;43.020;25.096;2023-09-18T13:33:32;99639.47;;;26.71
76901;BMP280;65859;43.020;25.096;2023-09-18T13:35:59;99647.72;;;26.68
76901;BMP280;65859;43.020;25.096;2023-09-18T13:38:26;99644.88;;;26.58
76901;BMP280;65859;43.020;25.096;2023-09-18T13:40:55;99643.34;;;26.86
76901;BMP280;65859;43.020;25.096;2023-09-18T13:43:21;99637.34;;;26.79
76901;BMP280;65859;43.020;25.096;2023-09-18T13:45:49;99640.28;;;26.55
76901;BMP280;65859;43.020;25.096;2023-09-18T13:48:18;99637.00;;;26.61
76901;BMP280;65859;43.020;25.096;2023-09-18T13:50:46;99642.19;;;26.87
76901;BMP280;65859;43.020;25.096;2023-09-18T13:53:13;99637.16;;;26.86
76901;BMP280;65859;43.020;25.096;2023-09-18T13:55:40;99632.63;;;26.67
76901;BMP280;65859;43.020;25.096;2023-09-18T13:58:06;99628.34;;;26.66
76901;BMP280;65859;43.020;25.096;2023-09-18T14:00:33;99623.75;;;26.63
76901;BMP280;65859;43.020;25.096;2023-09-18T14:02:59;99632.63;;;26.67
76901;BMP280;65859;43.020;25.096;2023-09-18T14:05:27;99632.63;;;26.67
76901;BMP280;65859;43.020;25.096;2023-09-18T14:07:56;99643.22;;;26.61
76901;BMP280;65859;43.020;25.096;2023-09-18T14:10:26;99632.81;;;26.43
76901;BMP280;65859;43.020;25.096;2023-09-18T14:12:53;99628.63;;;26.39
76901;BMP280;65859;43.020;25.096;2023-09-18T14:15:19;99632.28;;;26.48
76901;BMP280;65859;43.020;25.096;2023-09-18T14:17:45;99624.97;;;26.45
76901;BMP280;65859;43.020;25.096;2023-09-18T14:20:12;99626.50;;;26.46
76901;BMP280;65859;43.020;25.096;2023-09-18T14:22:38;99630.00;;;26.47
76901;BMP280;65859;43.020;25.096;2023-09-18T14:25:05;99620.72;;;26.44